Pagina principale
METAR-TAF:

METAR-TAF

Aeroporti :

Aeroporto di Ouagadougou

Ouagadougou, Burkina Faso

latitudine: 12-21N, longitudine: 001-31W, altezza: 316 m

Osservazione

Il bollettino è stato emesso 44 minuti fa, alle 13:00 UTC
Vento 10 kt da est, variando fra est/nord-est e sud-est
Temperature 32°C
Umidità 8%
Pressione 1014 hPa
Visibilità: 4000 m
polvere diffusa

METAR: DFFD 281300Z 10010KT 070V130 4000 DU NSC 32/M06 Q1014 BECMG 6000 NSW

Ora: 13:44 (13:44 UTC)

Previsione

Il bollettino è stato emesso 2 ore e 44 minuti fa, alle 11:00 UTC
Previsione valida dal 28 alle 12 UTC al 29 alle 18 UTC
Vento 10 kt da est
Visibilità: 4000 m
polvere diffusa
Evoluzione graduale
dal 28 alle 22 UTC al 28 alle 24 UTC
Visibilità: 6000 m
Evoluzione graduale
dal 29 alle 04 UTC al 29 alle 06 UTC
Visibilità: 2500 m
polvere diffusa

TAF: DFFD 281100Z 2812/2918 09010KT 4000 DU NSC BECMG 2822/2824 6000 NSW BECMG 2904/2906 2500 DU

Osservazioni e previsioni meteorologiche di più di 4000 aeroporti (messaggi METAR e TAF).

Le stazioni disponibili sono rappresentate dai dischi gialli e rossi sulla carta.

Puntare il mouse per vedere il nome della stazione.

Clicca sopra per visualizzare le osservazioni e previsioni meteorologiche.

Per cambiare la mappa : fare clic sui pulsanti verdi con una croce nera per ingrandire, il pulsante verde con un trattino per diminuire, o sulla freccia verde per le mappe adiacenti.


METAR-TAF: